LHA8AN EDDL-LIRF
Flight info
| Callsign | LHA8AN |
|---|---|
| Flight time | 1h 23m |
| Altitude | 37000 |
| Route | DODEN Y852 TUSUK DCT ULNOK L607 ABUKA DCT BATUB DCT TIRUL DCT NATAG DCT LORLO DCT GAVRA DCT RITEB |
| Aircraft | A320/M-SDE1E2FGIJ1RWYZE3/LB1 |
Departure
| Time | 2026-02-18 10:36 |
|---|---|
| Airport | Düsseldorf Airport (EDDL) |
Arrival
| Time | 2026-02-18 11:59 |
|---|---|
| Airport | Rome–Fiumicino Leonardo da Vinci International Airport (LIRF) |
| Time | Latitude | Longitude | Altitude | Speed | Heading |
|---|---|---|---|---|---|
| 2026-02-18 10:02 | 51.28012 | 6.76417 | 131 ft | 0 kts | 208° |
| 2026-02-18 10:26 | 51.28013 | 6.76418 | 130 ft | 1 kts | 208° |
| 2026-02-18 10:26 | 51.28028 | 6.76431 | 127 ft | 3 kts | 205° |
| 2026-02-18 10:26 | 51.28047 | 6.76444 | 125 ft | 3 kts | 193° |
| 2026-02-18 10:27 | 51.28065 | 6.76446 | 126 ft | 3 kts | 155° |
| 2026-02-18 10:27 | 51.28081 | 6.76431 | 126 ft | 3 kts | 147° |
| 2026-02-18 10:27 | 51.28098 | 6.76413 | 125 ft | 3 kts | 146° |
| 2026-02-18 10:27 | 51.28115 | 6.76396 | 125 ft | 3 kts | 146° |
| 2026-02-18 10:28 | 51.28132 | 6.76378 | 127 ft | 3 kts | 146° |
| 2026-02-18 10:28 | 51.28149 | 6.76361 | 128 ft | 3 kts | 153° |
| 2026-02-18 10:28 | 51.28167 | 6.76349 | 126 ft | 3 kts | 174° |
| 2026-02-18 10:28 | 51.28186 | 6.76351 | 126 ft | 3 kts | 204° |
| 2026-02-18 10:29 | 51.28198 | 6.76360 | 127 ft | 3 kts | 221° |
| 2026-02-18 10:29 | 51.28213 | 6.76387 | 126 ft | 1 kts | 233° |
| 2026-02-18 10:31 | 51.28212 | 6.76385 | 126 ft | 1 kts | 233° |
| 2026-02-18 10:31 | 51.28204 | 6.76368 | 127 ft | 3 kts | 232° |
| 2026-02-18 10:31 | 51.28185 | 6.76327 | 126 ft | 6 kts | 236° |
| 2026-02-18 10:32 | 51.28189 | 6.76262 | 126 ft | 8 kts | 299° |
| 2026-02-18 10:32 | 51.28201 | 6.76169 | 126 ft | 9 kts | 244° |
| 2026-02-18 10:32 | 51.28157 | 6.76078 | 125 ft | 12 kts | 232° |
| 2026-02-18 10:32 | 51.28101 | 6.75964 | 128 ft | 14 kts | 232° |
| 2026-02-18 10:33 | 51.28035 | 6.75825 | 128 ft | 17 kts | 232° |
| 2026-02-18 10:33 | 51.27886 | 6.75511 | 126 ft | 17 kts | 233° |
| 2026-02-18 10:33 | 51.27845 | 6.75425 | 125 ft | 5 kts | 236° |
| 2026-02-18 10:34 | 51.27847 | 6.75348 | 122 ft | 9 kts | 299° |
| 2026-02-18 10:34 | 51.27912 | 6.75288 | 123 ft | 13 kts | 336° |
| 2026-02-18 10:34 | 51.27967 | 6.75250 | 120 ft | 4 kts | 343° |
| 2026-02-18 10:34 | 51.27996 | 6.75273 | 118 ft | 6 kts | 56° |
| 2026-02-18 10:35 | 51.28041 | 6.75369 | 122 ft | 31 kts | 53° |
| 2026-02-18 10:35 | 51.28316 | 6.75944 | 127 ft | 97 kts | 52° |
| 2026-02-18 10:35 | 51.28836 | 6.77032 | 132 ft | 147 kts | 52° |
| 2026-02-18 10:35 | 51.29501 | 6.78430 | 464 ft | 160 kts | 55° |
| 2026-02-18 10:36 | 51.30164 | 6.79854 | 1179 ft | 160 kts | 51° |
| 2026-02-18 10:36 | 51.30841 | 6.81282 | 1799 ft | 161 kts | 49° |
| 2026-02-18 10:36 | 51.31061 | 6.81744 | 1988 ft | 161 kts | 48° |
| 2026-02-18 10:36 | 51.31289 | 6.82227 | 2196 ft | 161 kts | 49° |
| 2026-02-18 10:37 | 51.32188 | 6.84130 | 2957 ft | 161 kts | 47° |
| 2026-02-18 10:37 | 51.34371 | 6.88797 | 4097 ft | 200 kts | 51° |
| 2026-02-18 10:37 | 51.35104 | 6.90824 | 4365 ft | 226 kts | 69° |
| 2026-02-18 10:38 | 51.35271 | 6.93468 | 4729 ft | 255 kts | 95° |
| 2026-02-18 10:38 | 51.34901 | 6.96359 | 5324 ft | 271 kts | 99° |
| 2026-02-18 10:38 | 51.34549 | 6.99344 | 6205 ft | 275 kts | 98° |
| 2026-02-18 10:38 | 51.34231 | 7.02363 | 6962 ft | 283 kts | 97° |
| 2026-02-18 10:39 | 51.33929 | 7.05492 | 7816 ft | 285 kts | 97° |
| 2026-02-18 10:39 | 51.33679 | 7.08179 | 8548 ft | 288 kts | 97° |
| 2026-02-18 10:39 | 51.33380 | 7.11366 | 9381 ft | 292 kts | 97° |
| 2026-02-18 10:39 | 51.33019 | 7.14591 | 10167 ft | 297 kts | 104° |
| 2026-02-18 10:40 | 51.32259 | 7.17709 | 10680 ft | 311 kts | 118° |
| 2026-02-18 10:40 | 51.30962 | 7.20617 | 10881 ft | 334 kts | 134° |
| 2026-02-18 10:40 | 51.29281 | 7.23263 | 11139 ft | 351 kts | 136° |
| 2026-02-18 10:40 | 51.27490 | 7.26063 | 11761 ft | 358 kts | 136° |
| 2026-02-18 10:41 | 51.25704 | 7.28863 | 12456 ft | 362 kts | 136° |
| 2026-02-18 10:41 | 51.22125 | 7.34500 | 13843 ft | 369 kts | 136° |
| 2026-02-18 10:41 | 51.20267 | 7.37435 | 14443 ft | 373 kts | 136° |
| 2026-02-18 10:42 | 51.18441 | 7.40317 | 14997 ft | 377 kts | 136° |
| 2026-02-18 10:42 | 51.16563 | 7.43274 | 15557 ft | 381 kts | 136° |
| 2026-02-18 10:42 | 51.14662 | 7.46253 | 16111 ft | 386 kts | 137° |
| 2026-02-18 10:42 | 51.12698 | 7.49285 | 16676 ft | 390 kts | 137° |
| 2026-02-18 10:43 | 51.10754 | 7.52251 | 17224 ft | 395 kts | 138° |
| 2026-02-18 10:43 | 51.08731 | 7.55321 | 17817 ft | 399 kts | 138° |
| 2026-02-18 10:43 | 51.06736 | 7.58347 | 18385 ft | 404 kts | 138° |
| 2026-02-18 10:43 | 51.04668 | 7.61485 | 18903 ft | 408 kts | 138° |
| 2026-02-18 10:44 | 51.02599 | 7.64623 | 19421 ft | 413 kts | 138° |
| 2026-02-18 10:44 | 51.00510 | 7.67789 | 19949 ft | 418 kts | 138° |
| 2026-02-18 10:44 | 50.98460 | 7.70894 | 20451 ft | 422 kts | 138° |
| 2026-02-18 10:44 | 50.96230 | 7.73952 | 20940 ft | 425 kts | 146° |
| 2026-02-18 10:45 | 50.93753 | 7.76534 | 21407 ft | 428 kts | 151° |
| 2026-02-18 10:45 | 50.88644 | 7.81558 | 22316 ft | 437 kts | 151° |
| 2026-02-18 10:45 | 50.86051 | 7.84104 | 22745 ft | 441 kts | 151° |
| 2026-02-18 10:46 | 50.83393 | 7.86715 | 23163 ft | 445 kts | 151° |
| 2026-02-18 10:46 | 50.80787 | 7.89276 | 23559 ft | 449 kts | 151° |
| 2026-02-18 10:46 | 50.78121 | 7.91892 | 23928 ft | 453 kts | 151° |
| 2026-02-18 10:46 | 50.75431 | 7.94524 | 24273 ft | 457 kts | 151° |
| 2026-02-18 10:47 | 50.72717 | 7.97173 | 24610 ft | 460 kts | 151° |
| 2026-02-18 10:47 | 50.69986 | 7.99831 | 24953 ft | 464 kts | 151° |
| 2026-02-18 10:47 | 50.67475 | 8.02273 | 25249 ft | 467 kts | 151° |
| 2026-02-18 10:47 | 50.64700 | 8.04969 | 25572 ft | 470 kts | 152° |
| 2026-02-18 10:48 | 50.61794 | 8.07327 | 25885 ft | 470 kts | 161° |
| 2026-02-18 10:48 | 50.58770 | 8.09229 | 26221 ft | 472 kts | 163° |
| 2026-02-18 10:48 | 50.55675 | 8.10969 | 26549 ft | 474 kts | 165° |
| 2026-02-18 10:48 | 50.52538 | 8.12605 | 26884 ft | 477 kts | 166° |
| 2026-02-18 10:49 | 50.49365 | 8.14209 | 27213 ft | 480 kts | 167° |
| 2026-02-18 10:49 | 50.42964 | 8.17484 | 27845 ft | 488 kts | 166° |
| 2026-02-18 10:49 | 50.39740 | 8.19191 | 28159 ft | 491 kts | 166° |
| 2026-02-18 10:50 | 50.36493 | 8.20943 | 28480 ft | 495 kts | 165° |
| 2026-02-18 10:50 | 50.33241 | 8.22707 | 28763 ft | 498 kts | 165° |
| 2026-02-18 10:50 | 50.30145 | 8.24386 | 29103 ft | 500 kts | 166° |
| 2026-02-18 10:50 | 50.26862 | 8.26162 | 29512 ft | 500 kts | 166° |
| 2026-02-18 10:51 | 50.23571 | 8.27933 | 29905 ft | 501 kts | 166° |
| 2026-02-18 10:51 | 50.20265 | 8.29703 | 30262 ft | 503 kts | 166° |
| 2026-02-18 10:51 | 50.16949 | 8.31471 | 30583 ft | 504 kts | 166° |
| 2026-02-18 10:51 | 50.13624 | 8.33242 | 30889 ft | 506 kts | 166° |
| 2026-02-18 10:52 | 50.10285 | 8.35017 | 31216 ft | 507 kts | 166° |
| 2026-02-18 10:52 | 50.06941 | 8.36790 | 31547 ft | 509 kts | 166° |
| 2026-02-18 10:52 | 50.03585 | 8.38563 | 31860 ft | 510 kts | 166° |
| 2026-02-18 10:52 | 50.00212 | 8.40342 | 32194 ft | 512 kts | 166° |
| 2026-02-18 10:53 | 49.96838 | 8.42124 | 32530 ft | 513 kts | 166° |
| 2026-02-18 10:53 | 49.90058 | 8.45721 | 33175 ft | 516 kts | 166° |
| 2026-02-18 10:53 | 49.86658 | 8.47517 | 33504 ft | 517 kts | 166° |
| 2026-02-18 10:54 | 49.83245 | 8.49306 | 33850 ft | 518 kts | 166° |
| 2026-02-18 10:54 | 49.79830 | 8.51093 | 34146 ft | 520 kts | 166° |
| 2026-02-18 10:54 | 49.76395 | 8.52888 | 34438 ft | 520 kts | 166° |
| 2026-02-18 10:54 | 49.72960 | 8.54675 | 34752 ft | 520 kts | 166° |
| 2026-02-18 10:55 | 49.69534 | 8.56459 | 35064 ft | 520 kts | 166° |
| 2026-02-18 10:55 | 49.66103 | 8.58217 | 35384 ft | 519 kts | 167° |
| 2026-02-18 10:55 | 49.62674 | 8.59940 | 35688 ft | 518 kts | 167° |
| 2026-02-18 10:55 | 49.59242 | 8.61640 | 35993 ft | 517 kts | 167° |
| 2026-02-18 10:56 | 49.55810 | 8.63330 | 36299 ft | 517 kts | 167° |
| 2026-02-18 10:56 | 49.52390 | 8.65015 | 36589 ft | 516 kts | 167° |
| 2026-02-18 10:56 | 49.48971 | 8.66704 | 36873 ft | 516 kts | 167° |
| 2026-02-18 10:56 | 49.45553 | 8.68422 | 37006 ft | 518 kts | 165° |
| 2026-02-18 10:57 | 49.42150 | 8.70333 | 37028 ft | 524 kts | 163° |
| 2026-02-18 10:57 | 49.32023 | 8.76934 | 37008 ft | 529 kts | 160° |
| 2026-02-18 10:58 | 49.25268 | 8.81364 | 36994 ft | 529 kts | 161° |
| 2026-02-18 10:58 | 49.18452 | 8.85613 | 36984 ft | 528 kts | 162° |
| 2026-02-18 10:59 | 49.11629 | 8.89778 | 36984 ft | 529 kts | 162° |
| 2026-02-18 10:59 | 49.04799 | 8.94001 | 36978 ft | 529 kts | 161° |
| 2026-02-18 11:00 | 48.97976 | 8.98245 | 36977 ft | 530 kts | 161° |
| 2026-02-18 11:00 | 48.91148 | 9.02475 | 36972 ft | 530 kts | 161° |
| 2026-02-18 11:01 | 48.80872 | 9.08773 | 36967 ft | 531 kts | 161° |
| 2026-02-18 11:02 | 48.74019 | 9.12962 | 36966 ft | 532 kts | 161° |
| 2026-02-18 11:02 | 48.67159 | 9.17161 | 36967 ft | 532 kts | 161° |
| 2026-02-18 11:03 | 48.60277 | 9.21354 | 36969 ft | 533 kts | 161° |
| 2026-02-18 11:03 | 48.53393 | 9.25523 | 36965 ft | 533 kts | 161° |
| 2026-02-18 11:04 | 48.46504 | 9.29691 | 36973 ft | 534 kts | 161° |
| 2026-02-18 11:04 | 48.39602 | 9.33867 | 36968 ft | 534 kts | 161° |
| 2026-02-18 11:05 | 48.32705 | 9.38024 | 36970 ft | 535 kts | 161° |
| 2026-02-18 11:05 | 48.22338 | 9.44242 | 36974 ft | 535 kts | 161° |
| 2026-02-18 11:06 | 48.15414 | 9.48377 | 36975 ft | 536 kts | 161° |
| 2026-02-18 11:06 | 48.08485 | 9.52505 | 36982 ft | 536 kts | 161° |
| 2026-02-18 11:07 | 48.02881 | 9.55953 | 36973 ft | 538 kts | 155° |
| 2026-02-18 11:07 | 47.96525 | 9.61917 | 36978 ft | 541 kts | 146° |
| 2026-02-18 11:08 | 47.90332 | 9.68275 | 36983 ft | 541 kts | 146° |
| 2026-02-18 11:08 | 47.88272 | 9.70375 | 36990 ft | 541 kts | 146° |
| 2026-02-18 11:09 | 47.82201 | 9.76508 | 37012 ft | 542 kts | 146° |
| 2026-02-18 11:10 | 47.75968 | 9.82822 | 37000 ft | 542 kts | 146° |
| 2026-02-18 11:10 | 47.69740 | 9.89153 | 36989 ft | 543 kts | 146° |
| 2026-02-18 11:11 | 47.63503 | 9.95465 | 36978 ft | 543 kts | 146° |
| 2026-02-18 11:11 | 47.57246 | 10.01744 | 36969 ft | 543 kts | 146° |
| 2026-02-18 11:12 | 47.50982 | 10.08012 | 36953 ft | 543 kts | 146° |
| 2026-02-18 11:12 | 47.44728 | 10.14276 | 36947 ft | 543 kts | 146° |
| 2026-02-18 11:13 | 47.38470 | 10.20531 | 36939 ft | 543 kts | 146° |
| 2026-02-18 11:13 | 47.29084 | 10.29886 | 36935 ft | 543 kts | 146° |
| 2026-02-18 11:14 | 47.22809 | 10.36078 | 36920 ft | 543 kts | 146° |
| 2026-02-18 11:14 | 47.16532 | 10.42242 | 36923 ft | 542 kts | 146° |
| 2026-02-18 11:15 | 47.10265 | 10.48397 | 36925 ft | 542 kts | 146° |
| 2026-02-18 11:15 | 47.03681 | 10.53698 | 36939 ft | 538 kts | 161° |
| 2026-02-18 11:16 | 46.96573 | 10.57033 | 36952 ft | 536 kts | 166° |
| 2026-02-18 11:16 | 46.89444 | 10.60225 | 36942 ft | 536 kts | 166° |
| 2026-02-18 11:17 | 46.78788 | 10.65029 | 36931 ft | 534 kts | 166° |
| 2026-02-18 11:18 | 46.71702 | 10.68224 | 36926 ft | 532 kts | 166° |
| 2026-02-18 11:18 | 46.64605 | 10.71224 | 36922 ft | 530 kts | 167° |
| 2026-02-18 11:19 | 46.57491 | 10.74052 | 36912 ft | 530 kts | 167° |
| 2026-02-18 11:19 | 46.50391 | 10.76880 | 36904 ft | 529 kts | 167° |
| 2026-02-18 11:20 | 46.43311 | 10.79750 | 36887 ft | 528 kts | 167° |
| 2026-02-18 11:20 | 46.36232 | 10.82648 | 36896 ft | 528 kts | 167° |
| 2026-02-18 11:21 | 46.29173 | 10.85515 | 36901 ft | 527 kts | 167° |
| 2026-02-18 11:21 | 46.18600 | 10.89767 | 36906 ft | 525 kts | 167° |
| 2026-02-18 11:22 | 46.11575 | 10.92581 | 36894 ft | 523 kts | 167° |
| 2026-02-18 11:22 | 46.04559 | 10.95380 | 36902 ft | 523 kts | 167° |
| 2026-02-18 11:23 | 45.97553 | 10.98190 | 36916 ft | 523 kts | 167° |
| 2026-02-18 11:23 | 45.90542 | 11.00990 | 36921 ft | 522 kts | 167° |
| 2026-02-18 11:24 | 45.83537 | 11.03776 | 36932 ft | 524 kts | 168° |
| 2026-02-18 11:24 | 45.76504 | 11.06558 | 36932 ft | 525 kts | 168° |
| 2026-02-18 11:25 | 45.66003 | 11.10707 | 36950 ft | 526 kts | 168° |
| 2026-02-18 11:26 | 45.58933 | 11.13488 | 36968 ft | 528 kts | 168° |
| 2026-02-18 11:26 | 45.51839 | 11.16267 | 36973 ft | 530 kts | 168° |
| 2026-02-18 11:27 | 45.44722 | 11.19053 | 36972 ft | 531 kts | 168° |
| 2026-02-18 11:27 | 45.37582 | 11.21846 | 36971 ft | 533 kts | 168° |
| 2026-02-18 11:28 | 45.30426 | 11.24636 | 36959 ft | 534 kts | 168° |
| 2026-02-18 11:28 | 45.23418 | 11.27357 | 36963 ft | 534 kts | 168° |
| 2026-02-18 11:29 | 45.16677 | 11.29965 | 36970 ft | 535 kts | 168° |
| 2026-02-18 11:29 | 45.05906 | 11.34121 | 36977 ft | 535 kts | 168° |
| 2026-02-18 11:30 | 44.98713 | 11.36878 | 36975 ft | 535 kts | 169° |
| 2026-02-18 11:30 | 44.91523 | 11.39631 | 36973 ft | 536 kts | 169° |
| 2026-02-18 11:31 | 44.85972 | 11.41764 | 36971 ft | 536 kts | 169° |
| 2026-02-18 11:31 | 44.78773 | 11.44528 | 36983 ft | 536 kts | 169° |
| 2026-02-18 11:32 | 44.71575 | 11.47276 | 36995 ft | 536 kts | 169° |
| 2026-02-18 11:32 | 44.64376 | 11.50016 | 37003 ft | 536 kts | 169° |
| 2026-02-18 11:33 | 44.53585 | 11.54094 | 36997 ft | 535 kts | 169° |
| 2026-02-18 11:34 | 44.46387 | 11.56809 | 36991 ft | 535 kts | 169° |
| 2026-02-18 11:34 | 44.39198 | 11.59520 | 36985 ft | 535 kts | 169° |
| 2026-02-18 11:35 | 44.32014 | 11.62222 | 36986 ft | 535 kts | 169° |
| 2026-02-18 11:35 | 44.24831 | 11.64915 | 36996 ft | 535 kts | 170° |
| 2026-02-18 11:36 | 44.17648 | 11.67609 | 37001 ft | 534 kts | 170° |
| 2026-02-18 11:36 | 44.10452 | 11.70291 | 36668 ft | 535 kts | 170° |
| 2026-02-18 11:36 | 44.06856 | 11.71628 | 36419 ft | 536 kts | 170° |
| 2026-02-18 11:37 | 44.03241 | 11.72971 | 36169 ft | 538 kts | 169° |
| 2026-02-18 11:37 | 43.95997 | 11.75669 | 35676 ft | 541 kts | 169° |
| 2026-02-18 11:37 | 43.92350 | 11.77024 | 35437 ft | 543 kts | 169° |
| 2026-02-18 11:38 | 43.88744 | 11.78363 | 35198 ft | 545 kts | 169° |
| 2026-02-18 11:38 | 43.85078 | 11.79721 | 34952 ft | 547 kts | 169° |
| 2026-02-18 11:38 | 43.81396 | 11.81082 | 34717 ft | 548 kts | 169° |
| 2026-02-18 11:38 | 43.77704 | 11.82442 | 34475 ft | 550 kts | 169° |
| 2026-02-18 11:39 | 43.74002 | 11.83755 | 34250 ft | 550 kts | 171° |
| 2026-02-18 11:39 | 43.70267 | 11.84989 | 34018 ft | 551 kts | 171° |
| 2026-02-18 11:39 | 43.66528 | 11.86160 | 33195 ft | 555 kts | 172° |
| 2026-02-18 11:39 | 43.62738 | 11.87311 | 32174 ft | 559 kts | 172° |
| 2026-02-18 11:40 | 43.59206 | 11.88379 | 31220 ft | 564 kts | 172° |
| 2026-02-18 11:40 | 43.55515 | 11.89514 | 30217 ft | 568 kts | 172° |
| 2026-02-18 11:40 | 43.51632 | 11.90727 | 28962 ft | 572 kts | 171° |
| 2026-02-18 11:40 | 43.47799 | 11.91949 | 28605 ft | 558 kts | 171° |
| 2026-02-18 11:41 | 43.44047 | 11.93158 | 27795 ft | 554 kts | 171° |
| 2026-02-18 11:41 | 43.36627 | 11.95536 | 26434 ft | 540 kts | 171° |
| 2026-02-18 11:41 | 43.32991 | 11.96690 | 25826 ft | 533 kts | 171° |
| 2026-02-18 11:42 | 43.29401 | 11.97825 | 25234 ft | 525 kts | 171° |
| 2026-02-18 11:42 | 43.25862 | 11.98938 | 24673 ft | 518 kts | 171° |
| 2026-02-18 11:42 | 43.22371 | 12.00033 | 24113 ft | 511 kts | 171° |
| 2026-02-18 11:42 | 43.18931 | 12.01106 | 23571 ft | 504 kts | 170° |
| 2026-02-18 11:43 | 43.15534 | 12.02166 | 22928 ft | 497 kts | 170° |
| 2026-02-18 11:43 | 43.12194 | 12.03210 | 22321 ft | 489 kts | 170° |
| 2026-02-18 11:43 | 43.08896 | 12.04244 | 21724 ft | 482 kts | 170° |
| 2026-02-18 11:43 | 43.05657 | 12.05263 | 21150 ft | 474 kts | 170° |
| 2026-02-18 11:44 | 43.02462 | 12.06266 | 20603 ft | 467 kts | 170° |
| 2026-02-18 11:44 | 42.99318 | 12.07250 | 20090 ft | 460 kts | 170° |
| 2026-02-18 11:44 | 42.96220 | 12.08216 | 19582 ft | 454 kts | 170° |
| 2026-02-18 11:44 | 42.93165 | 12.09163 | 19116 ft | 447 kts | 170° |
| 2026-02-18 11:45 | 42.90147 | 12.10097 | 18657 ft | 441 kts | 170° |
| 2026-02-18 11:45 | 42.84272 | 12.11919 | 17697 ft | 430 kts | 169° |
| 2026-02-18 11:45 | 42.81356 | 12.12728 | 17141 ft | 424 kts | 176° |
| 2026-02-18 11:46 | 42.78436 | 12.13047 | 16595 ft | 419 kts | 179° |
| 2026-02-18 11:46 | 42.75543 | 12.13340 | 16026 ft | 415 kts | 178° |
| 2026-02-18 11:46 | 42.72650 | 12.13631 | 15203 ft | 418 kts | 178° |
| 2026-02-18 11:46 | 42.69752 | 12.13917 | 14601 ft | 415 kts | 178° |
| 2026-02-18 11:47 | 42.66881 | 12.14199 | 14021 ft | 411 kts | 178° |
| 2026-02-18 11:47 | 42.64046 | 12.14476 | 13396 ft | 407 kts | 177° |
| 2026-02-18 11:47 | 42.61235 | 12.14752 | 12725 ft | 402 kts | 177° |
| 2026-02-18 11:47 | 42.58458 | 12.15023 | 12066 ft | 398 kts | 177° |
| 2026-02-18 11:48 | 42.55712 | 12.15290 | 11415 ft | 394 kts | 177° |
| 2026-02-18 11:48 | 42.52990 | 12.15553 | 10788 ft | 389 kts | 177° |
| 2026-02-18 11:48 | 42.50343 | 12.15811 | 10632 ft | 373 kts | 177° |
| 2026-02-18 11:48 | 42.47811 | 12.16059 | 10500 ft | 357 kts | 177° |
| 2026-02-18 11:49 | 42.45379 | 12.16299 | 10371 ft | 344 kts | 177° |
| 2026-02-18 11:49 | 42.40768 | 12.16745 | 10114 ft | 322 kts | 177° |
| 2026-02-18 11:49 | 42.38566 | 12.16958 | 9988 ft | 313 kts | 177° |
| 2026-02-18 11:50 | 42.36415 | 12.17168 | 9728 ft | 309 kts | 177° |
| 2026-02-18 11:50 | 42.34281 | 12.17375 | 9403 ft | 306 kts | 177° |
| 2026-02-18 11:50 | 42.32160 | 12.17578 | 9009 ft | 306 kts | 177° |
| 2026-02-18 11:50 | 42.30044 | 12.17781 | 8561 ft | 302 kts | 177° |
| 2026-02-18 11:51 | 42.27956 | 12.17981 | 7963 ft | 300 kts | 177° |
| 2026-02-18 11:51 | 42.25885 | 12.18181 | 7313 ft | 299 kts | 176° |
| 2026-02-18 11:51 | 42.24501 | 12.18315 | 6832 ft | 301 kts | 176° |
| 2026-02-18 11:51 | 42.22439 | 12.18514 | 6390 ft | 294 kts | 176° |
| 2026-02-18 11:52 | 42.20408 | 12.18713 | 5843 ft | 291 kts | 176° |
| 2026-02-18 11:52 | 42.18398 | 12.18909 | 5267 ft | 289 kts | 177° |
| 2026-02-18 11:52 | 42.16479 | 12.19098 | 4994 ft | 285 kts | 177° |
| 2026-02-18 11:52 | 42.14524 | 12.19089 | 4731 ft | 278 kts | 191° |
| 2026-02-18 11:53 | 42.12652 | 12.18545 | 4464 ft | 273 kts | 195° |
| 2026-02-18 11:53 | 42.09154 | 12.17488 | 3969 ft | 267 kts | 195° |
| 2026-02-18 11:53 | 42.07354 | 12.17037 | 3822 ft | 259 kts | 184° |
| 2026-02-18 11:54 | 42.05603 | 12.17320 | 3693 ft | 250 kts | 163° |
| 2026-02-18 11:54 | 42.03972 | 12.18013 | 3566 ft | 241 kts | 163° |
| 2026-02-18 11:54 | 42.02401 | 12.18672 | 3422 ft | 232 kts | 163° |
| 2026-02-18 11:54 | 42.00890 | 12.19304 | 3298 ft | 224 kts | 163° |
| 2026-02-18 11:55 | 41.99425 | 12.19920 | 3197 ft | 219 kts | 163° |
| 2026-02-18 11:55 | 41.97968 | 12.20533 | 2984 ft | 220 kts | 163° |
| 2026-02-18 11:55 | 41.96503 | 12.21149 | 2659 ft | 221 kts | 163° |
| 2026-02-18 11:55 | 41.95050 | 12.21771 | 2399 ft | 215 kts | 162° |
| 2026-02-18 11:56 | 41.93655 | 12.22367 | 2103 ft | 208 kts | 164° |
| 2026-02-18 11:56 | 41.92296 | 12.22926 | 1811 ft | 199 kts | 164° |
| 2026-02-18 11:56 | 41.91032 | 12.23464 | 1605 ft | 178 kts | 164° |
| 2026-02-18 11:56 | 41.89896 | 12.23937 | 1299 ft | 166 kts | 164° |
| 2026-02-18 11:57 | 41.88829 | 12.24384 | 1132 ft | 157 kts | 163° |
| 2026-02-18 11:57 | 41.86867 | 12.25211 | 597 ft | 138 kts | 163° |
| 2026-02-18 11:57 | 41.85983 | 12.25581 | 369 ft | 130 kts | 162° |
| 2026-02-18 11:58 | 41.85139 | 12.25933 | 179 ft | 125 kts | 163° |
| 2026-02-18 11:58 | 41.84310 | 12.26273 | 48 ft | 125 kts | 163° |
| 2026-02-18 11:58 | 41.83562 | 12.26583 | 16 ft | 92 kts | 162° |
| 2026-02-18 11:58 | 41.83101 | 12.26775 | 11 ft | 52 kts | 162° |
| 2026-02-18 11:59 | 41.82830 | 12.26866 | 13 ft | 36 kts | 175° |
| 2026-02-18 11:59 | 41.82607 | 12.26835 | 11 ft | 30 kts | 191° |
| 2026-02-18 11:59 | 41.82417 | 12.26785 | 11 ft | 25 kts | 192° |
| 2026-02-18 11:59 | 41.82273 | 12.26796 | 13 ft | 22 kts | 162° |
| 2026-02-18 12:00 | 41.82121 | 12.26863 | 12 ft | 24 kts | 162° |
| 2026-02-18 12:00 | 41.81954 | 12.26933 | 11 ft | 26 kts | 162° |
| 2026-02-18 12:00 | 41.81776 | 12.27008 | 12 ft | 27 kts | 162° |
| 2026-02-18 12:00 | 41.81600 | 12.27082 | 12 ft | 26 kts | 163° |
| 2026-02-18 12:01 | 41.81420 | 12.27157 | 13 ft | 28 kts | 163° |
| 2026-02-18 12:01 | 41.81072 | 12.27303 | 12 ft | 23 kts | 163° |
| 2026-02-18 12:01 | 41.80923 | 12.27352 | 12 ft | 22 kts | 179° |
| 2026-02-18 12:02 | 41.80767 | 12.27320 | 13 ft | 22 kts | 190° |
| 2026-02-18 12:02 | 41.80663 | 12.27241 | 13 ft | 17 kts | 241° |
| 2026-02-18 12:02 | 41.80616 | 12.27083 | 13 ft | 19 kts | 248° |
| 2026-02-18 12:02 | 41.80566 | 12.26904 | 13 ft | 22 kts | 249° |
| 2026-02-18 12:03 | 41.80513 | 12.26705 | 17 ft | 23 kts | 250° |
| 2026-02-18 12:03 | 41.80455 | 12.26496 | 15 ft | 23 kts | 249° |
| 2026-02-18 12:03 | 41.80399 | 12.26293 | 17 ft | 22 kts | 250° |
| 2026-02-18 12:03 | 41.80358 | 12.26146 | 16 ft | 15 kts | 242° |
| 2026-02-18 12:04 | 41.80270 | 12.26067 | 14 ft | 17 kts | 204° |
| 2026-02-18 12:04 | 41.80155 | 12.25997 | 16 ft | 19 kts | 205° |
| 2026-02-18 12:04 | 41.80025 | 12.25917 | 16 ft | 22 kts | 205° |
| 2026-02-18 12:04 | 41.79915 | 12.25851 | 14 ft | 15 kts | 204° |
| 2026-02-18 12:05 | 41.79843 | 12.25831 | 14 ft | 9 kts | 163° |
| 2026-02-18 12:05 | 41.79702 | 12.25759 | 15 ft | 14 kts | 205° |
| 2026-02-18 12:05 | 41.79628 | 12.25713 | 14 ft | 8 kts | 205° |
| 2026-02-18 12:06 | 41.79605 | 12.25734 | 15 ft | 5 kts | 119° |
| 2026-02-18 12:06 | 41.79595 | 12.25764 | 16 ft | 2 kts | 115° |
| 2026-02-18 12:06 | 41.79592 | 12.25773 | 15 ft | 0 kts | 115° |